sensor_id;sensor_type;location;lat;lon;timestamp;pressure;altitude;pressure_sealevel;temperature;humidity
43934;BME280;59081;42.706;23.306;2022-12-29T00:01:17;96194.03;;;3.24;100.00
43934;BME280;59081;42.706;23.306;2022-12-29T00:03:45;96012.16;;;2.08;100.00
43934;BME280;59081;42.706;23.306;2022-12-29T00:06:14;95931.38;;;1.59;100.00
43934;BME280;59081;42.706;23.306;2022-12-29T00:08:40;95935.97;;;1.55;100.00
43934;BME280;59081;42.706;23.306;2022-12-29T00:11:19;95922.19;;;1.45;100.00
43934;BME280;59081;42.706;23.306;2022-12-29T00:13:48;95938.56;;;1.48;100.00
43934;BME280;59081;42.706;23.306;2022-12-29T00:16:37;96177.50;;;3.13;100.00
43934;BME280;59081;42.706;23.306;2022-12-29T00:19:04;96194.91;;;3.28;100.00
43934;BME280;59081;42.706;23.306;2022-12-29T00:21:32;96073.88;;;2.50;100.00
43934;BME280;59081;42.706;23.306;2022-12-29T00:24:21;95947.97;;;1.54;100.00
43934;BME280;59081;42.706;23.306;2022-12-29T00:26:56;95976.81;;;1.62;100.00
43934;BME280;59081;42.706;23.306;2022-12-29T00:29:42;96207.09;;;3.14;100.00
43934;BME280;59081;42.706;23.306;2022-12-29T00:32:26;95994.31;;;1.65;100.00
43934;BME280;59081;42.706;23.306;2022-12-29T00:35:13;96125.00;;;2.40;100.00
43934;BME280;59081;42.706;23.306;2022-12-29T00:37:46;96109.50;;;2.22;100.00
43934;BME280;59081;42.706;23.306;2022-12-29T00:40:40;96216.91;;;2.96;100.00
43934;BME280;59081;42.706;23.306;2022-12-29T00:43:23;96216.50;;;2.94;100.00
43934;BME280;59081;42.706;23.306;2022-12-29T00:46:11;95923.59;;;0.96;100.00
43934;BME280;59081;42.706;23.306;2022-12-29T00:48:37;96219.53;;;2.89;100.00
43934;BME280;59081;42.706;23.306;2022-12-29T00:51:24;96007.56;;;1.47;100.00
43934;BME280;59081;42.706;23.306;2022-12-29T00:53:50;95965.28;;;1.27;100.00
43934;BME280;59081;42.706;23.306;2022-12-29T00:56:18;96154.88;;;2.60;100.00
43934;BME280;59081;42.706;23.306;2022-12-29T00:58:44;95949.59;;;1.17;100.00
43934;BME280;59081;42.706;23.306;2022-12-29T01:01:10;96067.38;;;1.89;100.00
43934;BME280;59081;42.706;23.306;2022-12-29T01:03:36;95901.97;;;0.81;100.00
43934;BME280;59081;42.706;23.306;2022-12-29T01:06:10;96117.34;;;2.27;100.00
43934;BME280;59081;42.706;23.306;2022-12-29T01:08:36;95998.28;;;1.48;100.00
43934;BME280;59081;42.706;23.306;2022-12-29T01:11:07;95991.28;;;1.47;100.00
43934;BME280;59081;42.706;23.306;2022-12-29T01:13:34;95935.44;;;1.08;100.00
43934;BME280;59081;42.706;23.306;2022-12-29T01:16:06;96113.63;;;2.35;100.00
43934;BME280;59081;42.706;23.306;2022-12-29T01:18:32;96042.25;;;1.96;100.00
43934;BME280;59081;42.706;23.306;2022-12-29T01:21:01;96004.84;;;1.66;100.00
43934;BME280;59081;42.706;23.306;2022-12-29T01:23:28;95939.28;;;1.26;100.00
43934;BME280;59081;42.706;23.306;2022-12-29T01:25:57;95980.56;;;1.54;100.00
43934;BME280;59081;42.706;23.306;2022-12-29T01:28:33;96132.00;;;2.41;100.00
43934;BME280;59081;42.706;23.306;2022-12-29T01:31:01;96110.25;;;2.41;100.00
43934;BME280;59081;42.706;23.306;2022-12-29T01:33:27;95933.94;;;1.29;100.00
43934;BME280;59081;42.706;23.306;2022-12-29T01:36:03;95958.16;;;1.38;100.00
43934;BME280;59081;42.706;23.306;2022-12-29T01:38:32;95879.22;;;0.85;100.00
43934;BME280;59081;42.706;23.306;2022-12-29T01:41:02;96121.25;;;2.49;100.00
43934;BME280;59081;42.706;23.306;2022-12-29T01:46:39;95957.75;;;1.39;100.00
43934;BME280;59081;42.706;23.306;2022-12-29T01:49:16;96173.63;;;2.88;100.00
43934;BME280;59081;42.706;23.306;2022-12-29T01:52:02;95912.66;;;1.12;100.00
43934;BME280;59081;42.706;23.306;2022-12-29T01:54:35;96175.13;;;2.85;100.00
43934;BME280;59081;42.706;23.306;2022-12-29T01:57:06;95899.03;;;1.09;100.00
43934;BME280;59081;42.706;23.306;2022-12-29T01:59:43;96007.66;;;1.73;100.00
43934;BME280;59081;42.706;23.306;2022-12-29T02:02:13;96167.06;;;2.69;100.00
43934;BME280;59081;42.706;23.306;2022-12-29T02:04:41;96059.22;;;2.12;100.00
43934;BME280;59081;42.706;23.306;2022-12-29T02:07:21;96176.16;;;2.77;100.00
43934;BME280;59081;42.706;23.306;2022-12-29T02:09:57;95915.66;;;1.26;100.00
43934;BME280;59081;42.706;23.306;2022-12-29T02:12:23;95953.13;;;1.40;100.00
43934;BME280;59081;42.706;23.306;2022-12-29T02:15:00;95856.84;;;0.73;100.00
43934;BME280;59081;42.706;23.306;2022-12-29T02:26:41;95989.72;;;1.46;100.00
43934;BME280;59081;42.706;23.306;2022-12-29T02:32:03;95895.47;;;0.85;100.00
43934;BME280;59081;42.706;23.306;2022-12-29T02:45:51;95949.88;;;1.12;100.00
43934;BME280;59081;42.706;23.306;2022-12-29T02:48:51;95941.88;;;1.19;100.00
43934;BME280;59081;42.706;23.306;2022-12-29T02:51:21;96037.97;;;1.75;100.00
43934;BME280;59081;42.706;23.306;2022-12-29T02:53:57;95984.44;;;1.34;100.00
43934;BME280;59081;42.706;23.306;2022-12-29T02:56:44;95919.59;;;0.90;100.00
43934;BME280;59081;42.706;23.306;2022-12-29T02:59:11;96174.22;;;2.55;100.00
43934;BME280;59081;42.706;23.306;2022-12-29T03:02:06;96149.00;;;2.58;100.00
43934;BME280;59081;42.706;23.306;2022-12-29T03:13:12;95877.56;;;0.81;100.00
43934;BME280;59081;42.706;23.306;2022-12-29T03:19:10;95834.31;;;0.68;100.00
43934;BME280;59081;42.706;23.306;2022-12-29T03:21:54;95930.50;;;1.32;100.00
43934;BME280;59081;42.706;23.306;2022-12-29T03:24:45;95851.16;;;0.78;100.00
43934;BME280;59081;42.706;23.306;2022-12-29T03:27:19;95950.00;;;1.38;100.00
43934;BME280;59081;42.706;23.306;2022-12-29T03:29:51;96159.56;;;2.63;100.00
43934;BME280;59081;42.706;23.306;2022-12-29T03:32:20;95956.22;;;1.38;100.00
43934;BME280;59081;42.706;23.306;2022-12-29T03:34:49;96099.00;;;2.20;100.00
43934;BME280;59081;42.706;23.306;2022-12-29T03:37:24;95970.78;;;1.30;100.00
43934;BME280;59081;42.706;23.306;2022-12-29T03:39:51;96077.28;;;2.01;100.00
43934;BME280;59081;42.706;23.306;2022-12-29T03:42:24;95996.72;;;1.47;100.00
43934;BME280;59081;42.706;23.306;2022-12-29T03:44:54;95831.94;;;0.28;100.00
43934;BME280;59081;42.706;23.306;2022-12-29T03:47:22;95928.13;;;0.73;100.00
43934;BME280;59081;42.706;23.306;2022-12-29T03:49:49;95967.22;;;1.07;100.00
43934;BME280;59081;42.706;23.306;2022-12-29T03:52:17;96048.38;;;1.51;100.00
43934;BME280;59081;42.706;23.306;2022-12-29T03:54:46;96029.19;;;1.24;100.00
43934;BME280;59081;42.706;23.306;2022-12-29T03:57:15;95909.97;;;0.39;100.00
43934;BME280;59081;42.706;23.306;2022-12-29T03:59:48;96080.16;;;1.31;100.00
43934;BME280;59081;42.706;23.306;2022-12-29T04:02:17;96031.59;;;0.91;100.00
43934;BME280;59081;42.706;23.306;2022-12-29T04:04:45;96072.34;;;1.29;100.00
43934;BME280;59081;42.706;23.306;2022-12-29T04:07:14;96007.47;;;0.86;100.00
43934;BME280;59081;42.706;23.306;2022-12-29T04:09:49;95895.25;;;0.05;100.00
43934;BME280;59081;42.706;23.306;2022-12-29T04:12:20;95959.97;;;0.41;100.00
43934;BME280;59081;42.706;23.306;2022-12-29T04:14:46;96165.97;;;1.90;100.00
43934;BME280;59081;42.706;23.306;2022-12-29T04:17:23;96133.00;;;1.72;100.00
43934;BME280;59081;42.706;23.306;2022-12-29T04:19:55;95936.63;;;0.37;100.00
43934;BME280;59081;42.706;23.306;2022-12-29T04:22:56;95865.97;;;-0.25;100.00
43934;BME280;59081;42.706;23.306;2022-12-29T04:25:45;96064.41;;;1.01;100.00
43934;BME280;59081;42.706;23.306;2022-12-29T04:28:16;96175.09;;;1.82;100.00
43934;BME280;59081;42.706;23.306;2022-12-29T04:30:46;96171.25;;;1.83;100.00
43934;BME280;59081;42.706;23.306;2022-12-29T04:33:17;95944.06;;;0.40;100.00
43934;BME280;59081;42.706;23.306;2022-12-29T04:35:44;96119.84;;;1.39;100.00
43934;BME280;59081;42.706;23.306;2022-12-29T04:38:10;95998.53;;;0.50;100.00
43934;BME280;59081;42.706;23.306;2022-12-29T04:40:38;96135.63;;;1.49;100.00
43934;BME280;59081;42.706;23.306;2022-12-29T04:43:07;96197.78;;;1.89;100.00
43934;BME280;59081;42.706;23.306;2022-12-29T04:45:35;96080.72;;;1.21;100.00
43934;BME280;59081;42.706;23.306;2022-12-29T04:48:09;96198.31;;;1.79;100.00
43934;BME280;59081;42.706;23.306;2022-12-29T04:50:38;96059.59;;;0.95;100.00
43934;BME280;59081;42.706;23.306;2022-12-29T04:53:07;96000.94;;;0.55;100.00
43934;BME280;59081;42.706;23.306;2022-12-29T04:55:39;96025.31;;;0.71;100.00
43934;BME280;59081;42.706;23.306;2022-12-29T04:58:05;96140.59;;;1.47;100.00
43934;BME280;59081;42.706;23.306;2022-12-29T05:00:32;95940.63;;;0.08;100.00
43934;BME280;59081;42.706;23.306;2022-12-29T05:03:03;96032.78;;;0.58;100.00
43934;BME280;59081;42.706;23.306;2022-12-29T05:05:35;96147.00;;;1.39;100.00
43934;BME280;59081;42.706;23.306;2022-12-29T05:08:10;96030.69;;;0.67;100.00
43934;BME280;59081;42.706;23.306;2022-12-29T05:10:36;96120.81;;;1.47;100.00
43934;BME280;59081;42.706;23.306;2022-12-29T05:13:08;95934.84;;;0.09;100.00
43934;BME280;59081;42.706;23.306;2022-12-29T05:15:37;95929.63;;;0.16;100.00
43934;BME280;59081;42.706;23.306;2022-12-29T05:18:12;96145.78;;;1.52;100.00
43934;BME280;59081;42.706;23.306;2022-12-29T05:20:41;95917.13;;;0.12;100.00
43934;BME280;59081;42.706;23.306;2022-12-29T05:23:14;96000.69;;;0.60;100.00
43934;BME280;59081;42.706;23.306;2022-12-29T05:25:47;96222.44;;;2.00;100.00
43934;BME280;59081;42.706;23.306;2022-12-29T05:28:13;96033.69;;;0.97;100.00
43934;BME280;59081;42.706;23.306;2022-12-29T05:30:39;96039.97;;;1.01;100.00
43934;BME280;59081;42.706;23.306;2022-12-29T05:33:08;95913.06;;;0.21;100.00
43934;BME280;59081;42.706;23.306;2022-12-29T05:35:42;95927.72;;;0.36;100.00
43934;BME280;59081;42.706;23.306;2022-12-29T05:38:16;96132.22;;;1.71;100.00
43934;BME280;59081;42.706;23.306;2022-12-29T05:40:50;96130.69;;;1.55;100.00
43934;BME280;59081;42.706;23.306;2022-12-29T05:43:22;95960.84;;;0.45;100.00
43934;BME280;59081;42.706;23.306;2022-12-29T05:45:54;96212.47;;;2.23;100.00
43934;BME280;59081;42.706;23.306;2022-12-29T05:48:25;95942.09;;;0.56;100.00
43934;BME280;59081;42.706;23.306;2022-12-29T05:50:59;96156.25;;;1.89;100.00
43934;BME280;59081;42.706;23.306;2022-12-29T05:53:28;96212.00;;;2.40;100.00
43934;BME280;59081;42.706;23.306;2022-12-29T05:55:57;96045.66;;;1.31;100.00
43934;BME280;59081;42.706;23.306;2022-12-29T05:58:30;96023.03;;;1.08;100.00
43934;BME280;59081;42.706;23.306;2022-12-29T06:00:59;95935.75;;;0.48;100.00
43934;BME280;59081;42.706;23.306;2022-12-29T06:03:27;96143.78;;;1.88;100.00
43934;BME280;59081;42.706;23.306;2022-12-29T06:05:56;96092.59;;;1.51;100.00
43934;BME280;59081;42.706;23.306;2022-12-29T06:08:22;96043.28;;;1.30;100.00
43934;BME280;59081;42.706;23.306;2022-12-29T06:10:53;96135.78;;;1.95;100.00
43934;BME280;59081;42.706;23.306;2022-12-29T06:13:21;95918.41;;;0.53;100.00
43934;BME280;59081;42.706;23.306;2022-12-29T06:16:14;96222.16;;;2.43;100.00
43934;BME280;59081;42.706;23.306;2022-12-29T06:18:40;96156.63;;;1.91;100.00
43934;BME280;59081;42.706;23.306;2022-12-29T06:21:11;95972.03;;;0.79;100.00
43934;BME280;59081;42.706;23.306;2022-12-29T06:23:37;96140.72;;;1.89;100.00
43934;BME280;59081;42.706;23.306;2022-12-29T06:26:06;96083.31;;;1.52;100.00
43934;BME280;59081;42.706;23.306;2022-12-29T06:28:32;96233.59;;;2.53;100.00
43934;BME280;59081;42.706;23.306;2022-12-29T06:31:03;95957.84;;;0.66;100.00
43934;BME280;59081;42.706;23.306;2022-12-29T06:33:32;95931.41;;;0.63;100.00
43934;BME280;59081;42.706;23.306;2022-12-29T06:35:58;96068.78;;;1.45;100.00
43934;BME280;59081;42.706;23.306;2022-12-29T06:38:23;96229.81;;;2.57;100.00
43934;BME280;59081;42.706;23.306;2022-12-29T06:40:52;95935.06;;;0.51;100.00
43934;BME280;59081;42.706;23.306;2022-12-29T06:43:18;96229.47;;;2.59;100.00
43934;BME280;59081;42.706;23.306;2022-12-29T06:45:44;96042.41;;;1.26;100.00
43934;BME280;59081;42.706;23.306;2022-12-29T06:48:12;96233.88;;;2.67;100.00
43934;BME280;59081;42.706;23.306;2022-12-29T06:50:38;95896.16;;;0.44;100.00
43934;BME280;59081;42.706;23.306;2022-12-29T06:53:03;96061.78;;;1.44;100.00
43934;BME280;59081;42.706;23.306;2022-12-29T06:55:29;95951.13;;;0.79;100.00
43934;BME280;59081;42.706;23.306;2022-12-29T06:58:01;96067.31;;;1.47;100.00
43934;BME280;59081;42.706;23.306;2022-12-29T07:00:27;96136.44;;;1.88;100.00
43934;BME280;59081;42.706;23.306;2022-12-29T07:02:57;96126.56;;;1.80;100.00
43934;BME280;59081;42.706;23.306;2022-12-29T07:05:25;96243.53;;;2.64;100.00
43934;BME280;59081;42.706;23.306;2022-12-29T07:07:53;96066.31;;;1.55;100.00
43934;BME280;59081;42.706;23.306;2022-12-29T07:10:19;96174.50;;;2.30;100.00
43934;BME280;59081;42.706;23.306;2022-12-29T07:12:48;96252.63;;;2.72;100.00
43934;BME280;59081;42.706;23.306;2022-12-29T07:15:17;96205.34;;;2.38;100.00
43934;BME280;59081;42.706;23.306;2022-12-29T07:17:45;95963.41;;;0.92;100.00
43934;BME280;59081;42.706;23.306;2022-12-29T07:20:15;95935.84;;;0.90;100.00
43934;BME280;59081;42.706;23.306;2022-12-29T07:22:41;96064.22;;;1.87;100.00
43934;BME280;59081;42.706;23.306;2022-12-29T07:25:07;96141.69;;;2.62;100.00
43934;BME280;59081;42.706;23.306;2022-12-29T07:27:33;96120.47;;;2.48;100.00
43934;BME280;59081;42.706;23.306;2022-12-29T07:30:01;96249.34;;;3.28;100.00
43934;BME280;59081;42.706;23.306;2022-12-29T07:32:27;95995.53;;;1.67;100.00
43934;BME280;59081;42.706;23.306;2022-12-29T07:34:53;96133.16;;;2.86;100.00
43934;BME280;59081;42.706;23.306;2022-12-29T07:37:19;96192.47;;;3.23;100.00
43934;BME280;59081;42.706;23.306;2022-12-29T07:39:45;96192.63;;;3.33;99.51
43934;BME280;59081;42.706;23.306;2022-12-29T07:42:20;96177.19;;;3.41;99.45
43934;BME280;59081;42.706;23.306;2022-12-29T07:44:46;96049.25;;;2.65;98.53
43934;BME280;59081;42.706;23.306;2022-12-29T07:47:12;95984.75;;;2.39;96.60
43934;BME280;59081;42.706;23.306;2022-12-29T07:49:38;96156.53;;;3.66;95.83
43934;BME280;59081;42.706;23.306;2022-12-29T07:52:04;95985.81;;;2.58;95.31
43934;BME280;59081;42.706;23.306;2022-12-29T07:54:30;95949.63;;;2.54;94.17
43934;BME280;59081;42.706;23.306;2022-12-29T07:56:56;96005.34;;;3.20;91.94
43934;BME280;59081;42.706;23.306;2022-12-29T07:59:22;96134.38;;;3.98;92.11
43934;BME280;59081;42.706;23.306;2022-12-29T08:01:48;96194.22;;;4.54;91.54
43934;BME280;59081;42.706;23.306;2022-12-29T08:04:14;96137.25;;;4.45;90.49
43934;BME280;59081;42.706;23.306;2022-12-29T08:06:40;96068.38;;;4.18;89.17
43934;BME280;59081;42.706;23.306;2022-12-29T08:09:06;96267.16;;;5.79;86.64
43934;BME280;59081;42.706;23.306;2022-12-29T08:11:31;96110.34;;;4.88;84.09
43934;BME280;59081;42.706;23.306;2022-12-29T08:13:57;96055.50;;;4.60;83.49
43934;BME280;59081;42.706;23.306;2022-12-29T08:16:22;96057.59;;;4.77;82.77
43934;BME280;59081;42.706;23.306;2022-12-29T08:18:48;96254.22;;;6.31;81.67
43934;BME280;59081;42.706;23.306;2022-12-29T08:21:14;95978.25;;;4.52;80.29
43934;BME280;59081;42.706;23.306;2022-12-29T08:23:40;96195.88;;;6.09;80.25
43934;BME280;59081;42.706;23.306;2022-12-29T08:26:05;96047.44;;;5.29;79.24
43934;BME280;59081;42.706;23.306;2022-12-29T08:28:32;96259.91;;;6.73;78.02
43934;BME280;59081;42.706;23.306;2022-12-29T08:30:59;96259.88;;;6.70;78.54
43934;BME280;59081;42.706;23.306;2022-12-29T08:33:28;96265.41;;;6.84;77.74
43934;BME280;59081;42.706;23.306;2022-12-29T08:36:04;95984.31;;;5.51;77.96
43934;BME280;59081;42.706;23.306;2022-12-29T08:38:31;96251.06;;;7.44;74.71
43934;BME280;59081;42.706;23.306;2022-12-29T08:40:57;96035.63;;;5.93;74.40
43934;BME280;59081;42.706;23.306;2022-12-29T08:43:24;96106.88;;;6.36;76.01
43934;BME280;59081;42.706;23.306;2022-12-29T08:45:50;96146.06;;;6.79;75.62
43934;BME280;59081;42.706;23.306;2022-12-29T08:48:16;96178.22;;;7.18;73.00
43934;BME280;59081;42.706;23.306;2022-12-29T08:50:45;96070.91;;;6.34;73.72
43934;BME280;59081;42.706;23.306;2022-12-29T08:53:11;96095.19;;;6.46;74.49
43934;BME280;59081;42.706;23.306;2022-12-29T08:55:37;96108.91;;;6.68;74.75
43934;BME280;59081;42.706;23.306;2022-12-29T08:58:03;96239.69;;;7.81;72.93
43934;BME280;59081;42.706;23.306;2022-12-29T09:00:28;96105.03;;;6.90;71.78
43934;BME280;59081;42.706;23.306;2022-12-29T09:02:54;95948.53;;;5.88;72.66
43934;BME280;59081;42.706;23.306;2022-12-29T09:05:20;96167.63;;;7.52;71.96
43934;BME280;59081;42.706;23.306;2022-12-29T09:07:45;96025.22;;;6.74;71.23
43934;BME280;59081;42.706;23.306;2022-12-29T09:10:11;95948.94;;;6.29;70.47
43934;BME280;59081;42.706;23.306;2022-12-29T09:12:37;96019.72;;;7.09;69.66
43934;BME280;59081;42.706;23.306;2022-12-29T09:15:03;96040.00;;;7.37;69.18
43934;BME280;59081;42.706;23.306;2022-12-29T09:17:32;96072.47;;;7.59;68.19
43934;BME280;59081;42.706;23.306;2022-12-29T09:20:10;96042.31;;;7.56;68.57
43934;BME280;59081;42.706;23.306;2022-12-29T09:22:36;96111.91;;;7.94;68.34
43934;BME280;59081;42.706;23.306;2022-12-29T09:25:05;95982.09;;;7.17;68.31
43934;BME280;59081;42.706;23.306;2022-12-29T09:27:31;95989.44;;;7.55;68.74
43934;BME280;59081;42.706;23.306;2022-12-29T09:29:59;95997.88;;;7.93;66.32
43934;BME280;59081;42.706;23.306;2022-12-29T09:32:27;96007.56;;;8.12;65.39
43934;BME280;59081;42.706;23.306;2022-12-29T09:34:53;96214.47;;;9.74;64.87
43934;BME280;59081;42.706;23.306;2022-12-29T09:37:19;96023.63;;;8.76;63.06
43934;BME280;59081;42.706;23.306;2022-12-29T09:39:47;95988.63;;;8.35;63.36
43934;BME280;59081;42.706;23.306;2022-12-29T09:42:19;95948.03;;;8.05;63.94
43934;BME280;59081;42.706;23.306;2022-12-29T09:47:16;95940.72;;;8.43;62.61
43934;BME280;59081;42.706;23.306;2022-12-29T09:49:54;95963.63;;;8.70;61.69
43934;BME280;59081;42.706;23.306;2022-12-29T09:52:32;96192.38;;;10.23;61.76
43934;BME280;59081;42.706;23.306;2022-12-29T09:57:52;96180.44;;;10.70;60.58
43934;BME280;59081;42.706;23.306;2022-12-29T10:00:22;95945.31;;;9.35;59.87
43934;BME280;59081;42.706;23.306;2022-12-29T10:02:54;96186.69;;;11.01;59.32
43934;BME280;59081;42.706;23.306;2022-12-29T10:05:35;96138.16;;;11.07;58.09
43934;BME280;59081;42.706;23.306;2022-12-29T10:08:29;96174.81;;;11.31;57.79
43934;BME280;59081;42.706;23.306;2022-12-29T10:16:52;96166.91;;;10.79;59.32
43934;BME280;59081;42.706;23.306;2022-12-29T10:25:19;95990.44;;;9.72;58.59
43934;BME280;59081;42.706;23.306;2022-12-29T10:27:50;96051.44;;;9.67;60.84
43934;BME280;59081;42.706;23.306;2022-12-29T10:30:20;95912.22;;;8.71;62.27
43934;BME280;59081;42.706;23.306;2022-12-29T10:32:55;95999.00;;;9.10;62.86
43934;BME280;59081;42.706;23.306;2022-12-29T10:35:28;96095.75;;;10.10;61.89
43934;BME280;59081;42.706;23.306;2022-12-29T10:38:03;95992.19;;;9.59;60.54
43934;BME280;59081;42.706;23.306;2022-12-29T10:40:42;95886.50;;;8.92;61.00
43934;BME280;59081;42.706;23.306;2022-12-29T10:43:33;96054.19;;;10.35;61.09
43934;BME280;59081;42.706;23.306;2022-12-29T10:46:04;95896.75;;;9.56;59.84
43934;BME280;59081;42.706;23.306;2022-12-29T10:48:35;96066.81;;;10.86;58.87
43934;BME280;59081;42.706;23.306;2022-12-29T10:51:03;95902.69;;;9.81;58.83
43934;BME280;59081;42.706;23.306;2022-12-29T10:53:42;96048.66;;;10.62;59.43
43934;BME280;59081;42.706;23.306;2022-12-29T10:58:49;96053.97;;;11.46;57.35
43934;BME280;59081;42.706;23.306;2022-12-29T11:01:20;96116.22;;;11.70;57.33
43934;BME280;59081;42.706;23.306;2022-12-29T11:06:43;95949.53;;;11.05;56.07
43934;BME280;59081;42.706;23.306;2022-12-29T11:09:14;95890.22;;;10.54;55.95
43934;BME280;59081;42.706;23.306;2022-12-29T11:11:40;95915.28;;;10.82;56.88
43934;BME280;59081;42.706;23.306;2022-12-29T11:14:13;96099.06;;;12.62;55.45
43934;BME280;59081;42.706;23.306;2022-12-29T11:16:39;95865.09;;;11.70;54.03
43934;BME280;59081;42.706;23.306;2022-12-29T11:19:22;96021.28;;;13.12;51.86
43934;BME280;59081;42.706;23.306;2022-12-29T11:21:49;95880.41;;;12.88;49.58
43934;BME280;59081;42.706;23.306;2022-12-29T11:26:46;95871.00;;;13.31;48.43
43934;BME280;59081;42.706;23.306;2022-12-29T11:29:29;95870.66;;;13.29;48.34
43934;BME280;59081;42.706;23.306;2022-12-29T11:32:20;96031.47;;;14.72;47.06
43934;BME280;59081;42.706;23.306;2022-12-29T11:34:46;96033.91;;;14.83;46.55
43934;BME280;59081;42.706;23.306;2022-12-29T11:37:59;95956.91;;;14.23;46.59
43934;BME280;59081;42.706;23.306;2022-12-29T11:40:06;96008.13;;;13.90;47.93
43934;BME280;59081;42.706;23.306;2022-12-29T11:42:41;96079.59;;;14.53;48.91
43934;BME280;59081;42.706;23.306;2022-12-29T11:45:20;96012.19;;;14.02;48.36
43934;BME280;59081;42.706;23.306;2022-12-29T11:47:53;96084.25;;;14.56;48.73
43934;BME280;59081;42.706;23.306;2022-12-29T11:50:25;95865.50;;;13.44;47.16
43934;BME280;59081;42.706;23.306;2022-12-29T11:53:01;95901.81;;;14.00;46.74
43934;BME280;59081;42.706;23.306;2022-12-29T11:55:28;96014.16;;;14.93;45.96
43934;BME280;59081;42.706;23.306;2022-12-29T11:57:59;95981.78;;;14.65;45.82
43934;BME280;59081;42.706;23.306;2022-12-29T12:00:28;96088.59;;;15.08;45.72
43934;BME280;59081;42.706;23.306;2022-12-29T12:03:16;96066.59;;;15.26;45.97
43934;BME280;59081;42.706;23.306;2022-12-29T12:05:50;95907.97;;;13.79;46.77
43934;BME280;59081;42.706;23.306;2022-12-29T12:10:58;95973.69;;;13.49;48.80
43934;BME280;59081;42.706;23.306;2022-12-29T12:14:04;96052.84;;;13.76;50.24
43934;BME280;59081;42.706;23.306;2022-12-29T12:16:44;96020.88;;;13.58;50.65
43934;BME280;59081;42.706;23.306;2022-12-29T12:21:54;95910.34;;;12.61;50.75
43934;BME280;59081;42.706;23.306;2022-12-29T12:24:39;96049.34;;;13.59;50.73
43934;BME280;59081;42.706;23.306;2022-12-29T12:27:26;96025.41;;;13.04;52.24
43934;BME280;59081;42.706;23.306;2022-12-29T12:30:04;95966.91;;;12.40;52.74
43934;BME280;59081;42.706;23.306;2022-12-29T12:32:46;95942.38;;;11.90;53.72
43934;BME280;59081;42.706;23.306;2022-12-29T12:35:26;95868.38;;;11.45;54.63
43934;BME280;59081;42.706;23.306;2022-12-29T12:48:17;96035.56;;;12.58;55.28
43934;BME280;59081;42.706;23.306;2022-12-29T12:50:55;96043.38;;;12.63;55.07
43934;BME280;59081;42.706;23.306;2022-12-29T12:59:17;96039.47;;;12.61;55.19
43934;BME280;59081;42.706;23.306;2022-12-29T13:21:50;96035.19;;;12.92;57.68
43934;BME280;59081;42.706;23.306;2022-12-29T13:24:31;95918.44;;;12.19;54.35
43934;BME280;59081;42.706;23.306;2022-12-29T13:27:13;96048.88;;;13.15;53.81
43934;BME280;59081;42.706;23.306;2022-12-29T13:29:49;95860.78;;;12.38;52.52
43934;BME280;59081;42.706;23.306;2022-12-29T13:33:16;95972.31;;;13.41;51.45
43934;BME280;59081;42.706;23.306;2022-12-29T13:35:44;95970.94;;;13.62;50.59
43934;BME280;59081;42.706;23.306;2022-12-29T13:38:36;96045.00;;;13.87;51.16
43934;BME280;59081;42.706;23.306;2022-12-29T13:41:11;95897.91;;;12.37;52.30
43934;BME280;59081;42.706;23.306;2022-12-29T13:43:42;95904.50;;;11.31;55.98
43934;BME280;59081;42.706;23.306;2022-12-29T13:46:28;95915.97;;;11.49;56.21
43934;BME280;59081;42.706;23.306;2022-12-29T13:51:43;96046.19;;;12.24;56.93
43934;BME280;59081;42.706;23.306;2022-12-29T13:57:10;95983.09;;;11.00;59.02
43934;BME280;59081;42.706;23.306;2022-12-29T14:00:14;96043.25;;;9.60;66.83
43934;BME280;59081;42.706;23.306;2022-12-29T14:03:04;96042.31;;;8.98;70.58
43934;BME280;59081;42.706;23.306;2022-12-29T14:05:37;95871.03;;;7.75;71.56
43934;BME280;59081;42.706;23.306;2022-12-29T14:08:11;95969.69;;;8.96;69.52
43934;BME280;59081;42.706;23.306;2022-12-29T14:10:51;95910.94;;;8.83;68.50
43934;BME280;59081;42.706;23.306;2022-12-29T14:13:19;95883.09;;;8.81;68.01
43934;BME280;59081;42.706;23.306;2022-12-29T14:15:54;95908.59;;;9.19;66.54
43934;BME280;59081;42.706;23.306;2022-12-29T14:18:33;95866.78;;;9.00;65.92
43934;BME280;59081;42.706;23.306;2022-12-29T14:21:08;95979.94;;;8.92;71.74
43934;BME280;59081;42.706;23.306;2022-12-29T14:23:42;95801.75;;;6.94;73.84
43934;BME280;59081;42.706;23.306;2022-12-29T14:28:54;95906.66;;;6.84;78.04
43934;BME280;59081;42.706;23.306;2022-12-29T14:36:37;95932.88;;;6.85;80.05
43934;BME280;59081;42.706;23.306;2022-12-29T14:39:41;95811.41;;;5.86;81.02
43934;BME280;59081;42.706;23.306;2022-12-29T14:42:12;95859.47;;;6.19;81.35
43934;BME280;59081;42.706;23.306;2022-12-29T14:44:50;96056.84;;;7.35;82.56
43934;BME280;59081;42.706;23.306;2022-12-29T14:47:37;95882.91;;;6.10;82.79
43934;BME280;59081;42.706;23.306;2022-12-29T14:50:18;95844.59;;;6.38;81.40
43934;BME280;59081;42.706;23.306;2022-12-29T14:52:56;95960.13;;;7.34;79.36
43934;BME280;59081;42.706;23.306;2022-12-29T14:55:47;96050.41;;;7.91;79.27
43934;BME280;59081;42.706;23.306;2022-12-29T14:58:43;96010.63;;;7.30;81.80
43934;BME280;59081;42.706;23.306;2022-12-29T15:01:43;95910.25;;;6.52;83.36
43934;BME280;59081;42.706;23.306;2022-12-29T15:04:17;95803.19;;;5.79;83.13
43934;BME280;59081;42.706;23.306;2022-12-29T15:06:47;96049.28;;;7.75;82.48
43934;BME280;59081;42.706;23.306;2022-12-29T15:09:31;95996.59;;;7.17;82.68
43934;BME280;59081;42.706;23.306;2022-12-29T15:12:17;95911.03;;;6.46;83.43
43934;BME280;59081;42.706;23.306;2022-12-29T15:14:54;96073.63;;;7.51;84.24
43934;BME280;59081;42.706;23.306;2022-12-29T15:19:50;96062.72;;;7.33;85.24
43934;BME280;59081;42.706;23.306;2022-12-29T15:22:16;95780.53;;;5.68;84.96